Time;durP1;ratioP1;P1;durP2;ratioP2;P2;SDS_P1;SDS_P2;PMS_P1;PMS_P2;Temp;Humidity;BMP_temperature;BMP_pressure;BME280_temperature;BME280_humidity;BME280_pressure;Samples;Min_cycle;Max_cycle;Signal;HPM_P1;HPM_P2
2022/03/18 07:01:46;;;;;;;;;;;;;;;;;;5275229;23;19930;-89
2022/03/18 07:04:13;;;;;;;;;;;;;;;;;;4935335;29;19927;-87
2022/03/18 07:06:40;;;;;;;;;;;;;;;;;;4934914;29;19927;-87
2022/03/18 07:09:07;;;;;;;;;;;;;;;;;;4918334;29;20459;-87
2022/03/18 07:11:34;;;;;;;;;;;;;;;;;;4937813;29;19978;-88
2022/03/18 07:14:00;;;;;;;;;;;;;;;;;;4937576;29;19934;-86
2022/03/18 07:19:12;;;;;;;;;;;;;;;;;;4935726;29;19974;-91
2022/03/18 07:21:39;;;;;;;;;;;;;;;;;;4936497;29;19942;-86
2022/03/18 07:24:05;;;;;;;;;;;;;;;;;;4934224;29;20207;-86
2022/03/18 07:26:32;;;;;;;;;;;;;;;;;;4936675;29;19931;-87
2022/03/18 07:29:03;;;;;;;;;;;;;;;;;;4936178;29;19927;-88
2022/03/18 07:31:30;;;;;;;;;;;;;;;;;;4935555;29;20269;-86
2022/03/18 07:33:57;;;;;;;;;;;;;;;;;;4934706;29;20276;-86
2022/03/18 07:36:23;;;;;;;;;;;;;;;;;;4917572;29;19938;-86
2022/03/18 07:38:50;;;;;;;;;;;;;;;;;;4933733;29;19927;-87
2022/03/18 07:41:17;;;;;;;;;;;;;;;;;;4933416;29;19927;-86
2022/03/18 07:43:44;;;;;;;;;;;;;;;;;;4934367;29;19931;-86
2022/03/18 07:46:10;;;;;;;;;;;;;;;;;;4933326;29;19935;-87
2022/03/18 07:48:40;;;;;;;;;;;;;;;;;;4934638;29;19949;-88
2022/03/18 07:51:07;;;;;;;;;;;;;;;;;;4934024;29;20423;-87
2022/03/18 07:53:33;;;;;;;;;;;;;;;;;;4934371;29;20332;-87
2022/03/18 07:56:00;;;;;;;;;;;;;;;;;;4934188;29;20473;-87
2022/03/18 07:58:26;;;;;;;;;;;;;;;;;;4933699;29;19927;-84
2022/03/18 08:00:53;;;;;;;;;;;;;;;;;;4932563;29;19926;-85
2022/03/18 08:03:20;;;;;;;;;;;;;;;;;;4931461;29;19931;-86
2022/03/18 08:05:47;;;;;;;;;;;;;;;;;;4932378;29;20033;-86
2022/03/18 08:08:14;;;;;;;;;;;;;;;;;;4909584;29;19927;-86
2022/03/18 08:10:40;;;;;;;;;;;;;;;;;;4916749;29;19931;-89
2022/03/18 08:13:12;;;;;;;;;;;;;;;;;;4922978;29;19934;-89
2022/03/18 08:15:39;;;;;;;;;;;;;;;;;;4933015;29;19934;-86
2022/03/18 08:18:08;;;;;;;;;;;;;;;;;;4930099;29;19933;-87
2022/03/18 08:20:40;;;;;;;;;;;;;;;;;;4934807;29;20038;-88
2022/03/18 08:23:11;;;;;;;;;;;;;;;;;;4933598;29;20470;-88
2022/03/18 08:25:38;;;;;;;;;;;;;;;;;;4934269;29;19934;-88
2022/03/18 08:28:07;;;;;;;;;;;;;;;;;;4933514;29;19938;-87
2022/03/18 08:30:34;;;;;;;;;;;;;;;;;;4933948;29;19927;-87
2022/03/18 08:33:01;;;;;;;;;;;;;;;;;;4934778;29;20280;-88
2022/03/18 08:35:28;;;;;;;;;;;;;;;;;;4915235;29;19966;-88
2022/03/18 08:37:58;;;;;;;;;;;;;;;;;;4932848;29;19926;-88
2022/03/18 08:40:28;;;;;;;;;;;;;;;;;;4916308;29;19935;-87
2022/03/18 08:42:56;;;;;;;;;;;;;;;;;;4933222;29;19927;-86
2022/03/18 08:45:23;;;;;;;;;;;;;;;;;;4932885;29;19931;-85
2022/03/18 08:47:50;;;;;;;;;;;;;;;;;;4933691;29;19938;-85
2022/03/18 08:50:17;;;;;;;;;;;;;;;;;;4933126;29;19934;-86
2022/03/18 08:52:45;;;;;;;;;;;;;;;;;;4932701;29;19927;-87
2022/03/18 08:55:12;;;;;;;;;;;;;;;;;;4932677;29;19935;-87
2022/03/18 08:57:39;;;;;;;;;;;;;;;;;;4933133;29;19957;-86
2022/03/18 09:00:08;;;;;;;;;;;;;;;;;;4930883;29;19927;-87
2022/03/18 09:02:35;;;;;;;;;;;;;;;;;;4932496;29;20261;-87
2022/03/18 09:05:02;;;;;;;;;;;;;;;;;;4932639;29;19927;-87
2022/03/18 09:07:29;;;;;;;;;;;;;;;;;;4912885;29;19998;-87
2022/03/18 09:09:55;;;;;;;;;;;;;;;;;;4923223;29;19934;-87
2022/03/18 09:12:22;;;;;;;;;;;;;;;;;;4931692;29;20324;-86
2022/03/18 09:14:49;;;;;;;;;;;;;;;;;;4922549;29;19927;-87
2022/03/18 09:17:16;;;;;;;;;;;;;;;;;;4931720;29;19927;-86
2022/03/18 09:19:42;;;;;;;;;;;;;;;;;;4934354;29;19931;-86
2022/03/18 09:22:09;;;;;;;;;;;;;;;;;;4924650;29;19974;-86
2022/03/18 09:24:37;;;;;;;;;;;;;;;;;;4927495;29;19933;-87
2022/03/18 09:27:04;;;;;;;;;;;;;;;;;;4927145;29;19930;-86
2022/03/18 09:29:30;;;;;;;;;;;;;;;;;;4928689;29;20559;-86
2022/03/18 09:31:57;;;;;;;;;;;;;;;;;;4928646;29;19931;-88
2022/03/18 09:34:26;;;;;;;;;;;;;;;;;;4927343;29;19959;-87
2022/03/18 09:36:54;;;;;;;;;;;;;;;;;;4927679;29;19954;-87
2022/03/18 09:39:21;;;;;;;;;;;;;;;;;;4927494;29;19930;-86
2022/03/18 09:41:48;;;;;;;;;;;;;;;;;;4928683;29;19931;-87
2022/03/18 09:44:15;;;;;;;;;;;;;;;;;;4927588;29;19955;-85
2022/03/18 09:46:45;;;;;;;;;;;;;;;;;;4928364;29;19990;-87
2022/03/18 09:49:15;;;;;;;;;;;;;;;;;;4923632;29;19934;-88
2022/03/18 09:51:42;;;;;;;;;;;;;;;;;;4927641;29;19927;-88
2022/03/18 09:54:15;;;;;;;;;;;;;;;;;;4927351;29;19937;-88
2022/03/18 09:56:52;;;;;;;;;;;;;;;;;;4910094;29;19934;-85
2022/03/18 09:59:19;;;;;;;;;;;;;;;;;;4916831;29;19983;-86
2022/03/18 10:01:46;;;;;;;;;;;;;;;;;;4927679;29;19934;-87
2022/03/18 10:04:14;;;;;;;;;;;;;;;;;;4927159;29;19934;-88
2022/03/18 10:06:42;;;;;;;;;;;;;;;;;;4927376;29;19934;-88
2022/03/18 10:09:10;;;;;;;;;;;;;;;;;;4927330;29;19938;-88
2022/03/18 10:11:55;;;;;;;;;;;;;;;;;;4927571;29;19934;-89
2022/03/18 10:14:25;;;;;;;;;;;;;;;;;;4925633;29;19927;-89
2022/03/18 10:19:53;;;;;;;;;;;;;;;;;;5055288;27;19955;-87
2022/03/18 10:22:21;;;;;;;;;;;;;;;;;;5060219;27;19928;-87
2022/03/18 10:24:50;;;;;;;;;;;;;;;;;;5057834;28;19939;-89
2022/03/18 10:27:19;;;;;;;;;;;;;;;;;;5075863;27;20273;-86
2022/03/18 10:29:48;;;;;;;;;;;;;;;;;;5046829;27;19929;-89
2022/03/18 10:32:25;;;;;;;;;;;;;;;;;;5043316;28;20484;-88
2022/03/18 10:37:53;;;;;;;;;;;;;;;;;;5065543;27;19932;-87
2022/03/18 10:40:39;;;;;;;;;;;;;;;;;;5057569;27;20330;-88
2022/03/18 10:43:48;;;;;;;;;;;;;;;;;;5074634;27;19932;-87
2022/03/18 10:46:44;;;;;;;;;;;;;;;;;;5026072;28;20414;-89
2022/03/18 10:49:24;;;;;;;;;;;;;;;;;;5084252;27;19935;-87
2022/03/18 10:52:10;;;;;;;;;;;;;;;;;;5107609;28;19985;-88
2022/03/18 10:54:42;;;;;;;;;;;;;;;;;;5104364;28;19932;-88
2022/03/18 10:57:09;;;;;;;;;;;;;;;;;;5084621;28;19931;-88
2022/03/18 10:59:37;;;;;;;;;;;;;;;;;;5111552;27;19927;-86
2022/03/18 11:02:05;;;;;;;;;;;;;;;;;;5119048;27;19928;-85
2022/03/18 11:04:32;;;;;;;;;;;;;;;;;;5113566;27;19928;-88
2022/03/18 11:07:43;;;;;;;;;;;;;;;;;;5099552;28;19971;-91
2022/03/18 11:13:13;;;;;;;;;;;;;;;;;;5099802;27;19928;-88
2022/03/18 11:15:42;;;;;;;;;;;;;;;;;;5099172;28;19991;-88
2022/03/18 11:18:16;;;;;;;;;;;;;;;;;;5101668;27;19999;-89
2022/03/18 11:20:51;;;;;;;;;;;;;;;;;;5099900;27;19955;-88
2022/03/18 11:23:19;;;;;;;;;;;;;;;;;;5090811;27;19924;-89
2022/03/18 11:25:46;;;;;;;;;;;;;;;;;;5097924;27;19973;-88
2022/03/18 11:28:20;;;;;;;;;;;;;;;;;;5090745;28;20048;-89
2022/03/18 11:30:48;;;;;;;;;;;;;;;;;;5085080;28;19928;-88
2022/03/18 11:33:18;;;;;;;;;;;;;;;;;;5084329;28;19978;-88
2022/03/18 11:35:54;;;;;;;;;;;;;;;;;;5084229;28;19924;-90
2022/03/18 11:38:33;;;;;;;;;;;;;;;;;;5109521;27;20518;-90
2022/03/18 11:41:05;;;;;;;;;;;;;;;;;;5081555;27;20374;-89
2022/03/18 11:43:42;;;;;;;;;;;;;;;;;;5079346;28;19928;-88
2022/03/18 11:46:16;;;;;;;;;;;;;;;;;;5083671;28;19967;-89
2022/03/18 11:48:44;;;;;;;;;;;;;;;;;;5072163;28;19934;-88
2022/03/18 11:51:26;;;;;;;;;;;;;;;;;;5076266;28;19932;-90
2022/03/18 11:53:54;;;;;;;;;;;;;;;;;;5117274;27;19928;-87
2022/03/18 11:56:39;;;;;;;;;;;;;;;;;;5079727;28;20153;-88
2022/03/18 11:59:24;;;;;;;;;;;;;;;;;;5079049;28;20380;-87
2022/03/18 12:01:51;;;;;;;;;;;;;;;;;;5078230;28;19932;-88
2022/03/18 12:04:54;;;;;;;;;;;;;;;;;;5080336;28;19924;-89
2022/03/18 12:07:34;;;;;;;;;;;;;;;;;;5064473;28;19939;-87
2022/03/18 12:10:03;;;;;;;;;;;;;;;;;;5068107;28;19947;-89
2022/03/18 12:12:32;;;;;;;;;;;;;;;;;;5049352;28;20315;-89
2022/03/18 12:15:02;;;;;;;;;;;;;;;;;;5035627;28;19937;-90
2022/03/18 12:17:39;;;;;;;;;;;;;;;;;;5054437;28;19929;-85
2022/03/18 12:20:07;;;;;;;;;;;;;;;;;;5067033;28;19925;-87
2022/03/18 12:22:36;;;;;;;;;;;;;;;;;;5067204;28;19970;-86
2022/03/18 12:25:04;;;;;;;;;;;;;;;;;;5072155;28;19958;-89
2022/03/18 12:27:36;;;;;;;;;;;;;;;;;;5066454;28;19924;-90
2022/03/18 12:30:07;;;;;;;;;;;;;;;;;;5067564;28;19928;-90
2022/03/18 12:32:41;;;;;;;;;;;;;;;;;;5053078;28;19980;-90
2022/03/18 12:35:07;;;;;;;;;;;;;;;;;;5021347;28;19933;-88
2022/03/18 12:37:34;;;;;;;;;;;;;;;;;;5045570;28;20427;-88
2022/03/18 12:40:08;;;;;;;;;;;;;;;;;;5045453;28;19940;-87
2022/03/18 12:42:45;;;;;;;;;;;;;;;;;;5054450;28;19932;-88
2022/03/18 12:45:12;;;;;;;;;;;;;;;;;;5083746;28;20456;-88
2022/03/18 12:47:39;;;;;;;;;;;;;;;;;;5076903;28;19932;-89
2022/03/18 12:50:06;;;;;;;;;;;;;;;;;;5071426;28;19924;-84
2022/03/18 12:52:42;;;;;;;;;;;;;;;;;;5072342;28;19995;-85
2022/03/18 12:55:09;;;;;;;;;;;;;;;;;;5074515;28;19924;-83
2022/03/18 12:57:37;;;;;;;;;;;;;;;;;;5084075;28;19928;-85
2022/03/18 13:00:08;;;;;;;;;;;;;;;;;;5069885;28;20416;-85
2022/03/18 13:02:56;;;;;;;;;;;;;;;;;;5069449;28;20021;-88
2022/03/18 13:05:27;;;;;;;;;;;;;;;;;;5077361;28;19959;-89
2022/03/18 13:07:58;;;;;;;;;;;;;;;;;;5082668;28;19924;-88
2022/03/18 13:10:25;;;;;;;;;;;;;;;;;;5082135;28;19985;-88
2022/03/18 13:12:51;;;;;;;;;;;;;;;;;;5076582;28;20346;-89
2022/03/18 13:15:19;;;;;;;;;;;;;;;;;;5070468;28;19924;-88
2022/03/18 13:17:47;;;;;;;;;;;;;;;;;;5090070;28;19928;-88
2022/03/18 13:20:40;;;;;;;;;;;;;;;;;;5088575;28;19931;-88
2022/03/18 13:23:07;;;;;;;;;;;;;;;;;;5087117;28;19928;-89
2022/03/18 13:25:34;;;;;;;;;;;;;;;;;;5089141;28;20342;-88
2022/03/18 13:28:02;;;;;;;;;;;;;;;;;;5086647;28;19929;-89
2022/03/18 13:33:14;;;;;;;;;;;;;;;;;;5088014;28;19928;-89
2022/03/18 13:35:45;;;;;;;;;;;;;;;;;;5088762;28;19935;-89
2022/03/18 13:38:19;;;;;;;;;;;;;;;;;;5082287;28;19924;-89
2022/03/18 13:41:00;;;;;;;;;;;;;;;;;;5084275;28;20360;-88
2022/03/18 13:43:31;;;;;;;;;;;;;;;;;;5087031;28;19931;-89
2022/03/18 13:46:10;;;;;;;;;;;;;;;;;;5088701;28;19965;-89
2022/03/18 13:48:36;;;;;;;;;;;;;;;;;;5094176;28;19931;-88
2022/03/18 13:51:06;;;;;;;;;;;;;;;;;;5089106;28;19924;-88
2022/03/18 13:53:37;;;;;;;;;;;;;;;;;;5089806;28;19931;-89
2022/03/18 13:56:14;;;;;;;;;;;;;;;;;;5089267;28;19923;-87
2022/03/18 13:58:41;;;;;;;;;;;;;;;;;;5087847;28;20447;-89
2022/03/18 14:01:09;;;;;;;;;;;;;;;;;;5086963;28;19924;-90
2022/03/18 14:03:38;;;;;;;;;;;;;;;;;;5089067;28;19924;-89
2022/03/18 14:06:05;;;;;;;;;;;;;;;;;;5087800;28;19928;-88
2022/03/18 14:08:41;;;;;;;;;;;;;;;;;;5089280;28;19931;-89
2022/03/18 14:14:18;;;;;;;;;;;;;;;;;;5088828;28;19967;-89
2022/03/18 14:17:03;;;;;;;;;;;;;;;;;;5086811;28;19942;-88
2022/03/18 14:19:45;;;;;;;;;;;;;;;;;;5077343;28;20362;-88
2022/03/18 14:22:30;;;;;;;;;;;;;;;;;;5106592;28;19924;-86
2022/03/18 14:24:57;;;;;;;;;;;;;;;;;;5076878;28;20446;-87
2022/03/18 14:27:24;;;;;;;;;;;;;;;;;;5094960;28;20347;-86
2022/03/18 14:29:50;;;;;;;;;;;;;;;;;;5075440;28;19925;-88
2022/03/18 14:32:17;;;;;;;;;;;;;;;;;;5071437;28;19929;-87
2022/03/18 14:34:45;;;;;;;;;;;;;;;;;;5072341;28;19924;-87
2022/03/18 14:37:12;;;;;;;;;;;;;;;;;;5071220;28;20010;-87
2022/03/18 14:39:39;;;;;;;;;;;;;;;;;;5093736;28;19924;-88
2022/03/18 14:42:05;;;;;;;;;;;;;;;;;;5081146;28;19947;-87
2022/03/18 14:44:33;;;;;;;;;;;;;;;;;;5076340;28;19933;-87
2022/03/18 14:47:05;;;;;;;;;;;;;;;;;;5069436;28;19994;-87
2022/03/18 14:49:31;;;;;;;;;;;;;;;;;;5099720;28;19924;-88
2022/03/18 14:51:58;;;;;;;;;;;;;;;;;;5068287;28;20018;-88
2022/03/18 14:57:13;;;;;;;;;;;;;;;;;;5069072;28;19932;-89
2022/03/18 14:59:41;;;;;;;;;;;;;;;;;;5070729;28;19928;-89
2022/03/18 15:02:08;;;;;;;;;;;;;;;;;;5075661;28;19930;-89
2022/03/18 15:04:35;;;;;;;;;;;;;;;;;;5076908;28;19935;-87
2022/03/18 15:07:02;;;;;;;;;;;;;;;;;;5080213;28;20455;-87
2022/03/18 15:09:31;;;;;;;;;;;;;;;;;;5095835;28;19932;-87
2022/03/18 15:11:58;;;;;;;;;;;;;;;;;;5081954;28;19927;-89
2022/03/18 15:14:24;;;;;;;;;;;;;;;;;;5072922;28;19928;-88
2022/03/18 15:16:51;;;;;;;;;;;;;;;;;;5092972;28;19947;-87
2022/03/18 15:19:18;;;;;;;;;;;;;;;;;;5092890;28;19928;-88
2022/03/18 15:21:45;;;;;;;;;;;;;;;;;;5075285;28;19981;-88
2022/03/18 15:24:12;;;;;;;;;;;;;;;;;;5084478;28;19932;-87
2022/03/18 15:26:39;;;;;;;;;;;;;;;;;;5107737;27;19998;-86
2022/03/18 15:29:06;;;;;;;;;;;;;;;;;;5077886;28;20005;-86
2022/03/18 15:31:32;;;;;;;;;;;;;;;;;;5083009;28;20473;-89
2022/03/18 15:34:00;;;;;;;;;;;;;;;;;;5085165;28;19959;-89
2022/03/18 15:36:29;;;;;;;;;;;;;;;;;;5079424;27;19932;-89
2022/03/18 15:38:57;;;;;;;;;;;;;;;;;;5078626;28;19931;-89
2022/03/18 15:41:24;;;;;;;;;;;;;;;;;;5076909;28;19985;-89
2022/03/18 15:43:52;;;;;;;;;;;;;;;;;;5079139;28;20248;-92
2022/03/18 15:46:18;;;;;;;;;;;;;;;;;;5083587;28;19932;-88
2022/03/18 15:48:45;;;;;;;;;;;;;;;;;;5073720;28;19932;-87
2022/03/18 15:51:13;;;;;;;;;;;;;;;;;;5083271;28;19932;-88
2022/03/18 15:53:46;;;;;;;;;;;;;;;;;;5095381;28;19932;-87
2022/03/18 15:56:12;;;;;;;;;;;;;;;;;;5088399;28;19924;-88
2022/03/18 15:58:42;;;;;;;;;;;;;;;;;;5082486;28;19936;-85
2022/03/18 16:01:10;;;;;;;;;;;;;;;;;;5080683;28;19928;-88
2022/03/18 16:03:36;;;;;;;;;;;;;;;;;;5068858;28;19997;-86
2022/03/18 16:06:03;;;;;;;;;;;;;;;;;;5072883;28;19924;-88
2022/03/18 16:08:31;;;;;;;;;;;;;;;;;;5081932;28;19932;-88
2022/03/18 16:10:59;;;;;;;;;;;;;;;;;;5075527;28;19933;-88
2022/03/18 16:13:26;;;;;;;;;;;;;;;;;;5074463;28;19928;-87
2022/03/18 16:15:52;;;;;;;;;;;;;;;;;;5072772;28;19969;-88
2022/03/18 16:18:27;;;;;;;;;;;;;;;;;;5070862;28;20353;-88
2022/03/18 16:20:53;;;;;;;;;;;;;;;;;;5071961;28;19936;-89
2022/03/18 16:23:20;;;;;;;;;;;;;;;;;;5076006;28;19924;-88
2022/03/18 16:25:47;;;;;;;;;;;;;;;;;;5083953;28;20391;-88
2022/03/18 16:28:13;;;;;;;;;;;;;;;;;;5080105;28;19960;-88
2022/03/18 16:30:43;;;;;;;;;;;;;;;;;;5080340;28;19924;-87
2022/03/18 16:33:10;;;;;;;;;;;;;;;;;;5085988;28;19923;-85
2022/03/18 16:35:38;;;;;;;;;;;;;;;;;;5082084;28;20552;-85
2022/03/18 16:38:05;;;;;;;;;;;;;;;;;;5075167;28;19924;-87
2022/03/18 16:40:32;;;;;;;;;;;;;;;;;;5071570;28;19968;-87
2022/03/18 16:42:59;;;;;;;;;;;;;;;;;;5081208;28;19933;-86
2022/03/18 16:45:28;;;;;;;;;;;;;;;;;;5083991;28;19990;-88
2022/03/18 16:50:43;;;;;;;;;;;;;;;;;;5088564;28;20406;-88
2022/03/18 16:53:11;;;;;;;;;;;;;;;;;;5083236;28;19936;-86
2022/03/18 16:55:38;;;;;;;;;;;;;;;;;;5081596;28;19924;-87
2022/03/18 16:58:05;;;;;;;;;;;;;;;;;;5080702;28;20100;-86
2022/03/18 17:00:33;;;;;;;;;;;;;;;;;;5068375;28;19924;-85
2022/03/18 17:03:05;;;;;;;;;;;;;;;;;;5086059;28;20288;-85
2022/03/18 17:05:33;;;;;;;;;;;;;;;;;;5094834;28;19983;-85
2022/03/18 17:08:00;;;;;;;;;;;;;;;;;;5076949;28;19924;-87
2022/03/18 17:10:26;;;;;;;;;;;;;;;;;;5083356;28;19937;-87
2022/03/18 17:12:53;;;;;;;;;;;;;;;;;;5077418;28;19939;-86
2022/03/18 17:15:20;;;;;;;;;;;;;;;;;;5080936;28;19932;-85
2022/03/18 17:17:46;;;;;;;;;;;;;;;;;;5074771;28;19990;-85
2022/03/18 17:20:13;;;;;;;;;;;;;;;;;;5080863;28;19929;-85
2022/03/18 17:22:40;;;;;;;;;;;;;;;;;;5090079;28;19950;-85
2022/03/18 17:25:07;;;;;;;;;;;;;;;;;;5081777;28;20605;-84
2022/03/18 17:27:39;;;;;;;;;;;;;;;;;;5082355;28;19928;-85
2022/03/18 17:30:05;;;;;;;;;;;;;;;;;;5079919;28;20441;-85
2022/03/18 17:32:32;;;;;;;;;;;;;;;;;;5086176;28;19926;-84
2022/03/18 17:34:59;;;;;;;;;;;;;;;;;;5077905;28;20416;-86
2022/03/18 17:37:25;;;;;;;;;;;;;;;;;;5081332;27;20384;-87
2022/03/18 17:39:52;;;;;;;;;;;;;;;;;;5084585;28;20558;-89
2022/03/18 17:42:19;;;;;;;;;;;;;;;;;;5075854;28;19932;-85
2022/03/18 17:44:46;;;;;;;;;;;;;;;;;;5103833;27;20387;-86
2022/03/18 17:47:13;;;;;;;;;;;;;;;;;;5087511;27;19928;-86
2022/03/18 17:49:42;;;;;;;;;;;;;;;;;;5082892;28;20345;-88
2022/03/18 17:52:10;;;;;;;;;;;;;;;;;;5074159;28;19924;-86
2022/03/18 17:54:38;;;;;;;;;;;;;;;;;;5087133;28;19924;-87
2022/03/18 17:57:04;;;;;;;;;;;;;;;;;;5079425;28;19928;-89
2022/03/18 17:59:31;;;;;;;;;;;;;;;;;;5080013;28;19924;-85
2022/03/18 18:01:58;;;;;;;;;;;;;;;;;;5075633;27;19931;-83
2022/03/18 18:04:24;;;;;;;;;;;;;;;;;;5071677;28;20027;-85
2022/03/18 18:06:54;;;;;;;;;;;;;;;;;;5087251;28;19935;-85
2022/03/18 18:09:23;;;;;;;;;;;;;;;;;;5082241;28;20031;-84
2022/03/18 18:11:50;;;;;;;;;;;;;;;;;;5075135;28;20007;-86
2022/03/18 18:14:17;;;;;;;;;;;;;;;;;;5085281;28;19939;-86
2022/03/18 18:16:43;;;;;;;;;;;;;;;;;;5086681;28;19928;-86
2022/03/18 18:21:58;;;;;;;;;;;;;;;;;;5085011;28;20466;-86
2022/03/18 18:24:36;;;;;;;;;;;;;;;;;;5076885;28;19928;-86
2022/03/18 18:27:04;;;;;;;;;;;;;;;;;;5081953;28;19939;-87
2022/03/18 18:29:30;;;;;;;;;;;;;;;;;;5083074;28;20388;-87
2022/03/18 18:31:58;;;;;;;;;;;;;;;;;;5077650;28;19978;-86
2022/03/18 18:34:24;;;;;;;;;;;;;;;;;;5081141;28;20346;-88
2022/03/18 18:36:58;;;;;;;;;;;;;;;;;;5082874;28;20536;-86
2022/03/18 18:39:25;;;;;;;;;;;;;;;;;;5073172;28;19924;-86
2022/03/18 18:41:56;;;;;;;;;;;;;;;;;;5083692;28;19974;-85
2022/03/18 18:44:24;;;;;;;;;;;;;;;;;;5078051;28;19929;-85
2022/03/18 18:47:00;;;;;;;;;;;;;;;;;;5081818;28;20650;-90
2022/03/18 18:49:34;;;;;;;;;;;;;;;;;;5078555;28;19928;-90
2022/03/18 18:52:01;;;;;;;;;;;;;;;;;;5083935;28;19924;-88
2022/03/18 18:54:29;;;;;;;;;;;;;;;;;;5088096;28;20350;-90
2022/03/18 18:56:57;;;;;;;;;;;;;;;;;;5084880;28;19935;-89
2022/03/18 18:59:24;;;;;;;;;;;;;;;;;;5071777;28;20365;-90
2022/03/18 19:01:52;;;;;;;;;;;;;;;;;;5079821;28;19928;-85
2022/03/18 19:04:20;;;;;;;;;;;;;;;;;;5081496;28;19924;-88
2022/03/18 19:06:47;;;;;;;;;;;;;;;;;;5080065;28;19935;-88
2022/03/18 19:09:14;;;;;;;;;;;;;;;;;;5077722;28;19939;-87
2022/03/18 19:11:41;;;;;;;;;;;;;;;;;;5087062;28;19924;-87
2022/03/18 19:14:08;;;;;;;;;;;;;;;;;;5085697;28;20379;-86
2022/03/18 19:16:35;;;;;;;;;;;;;;;;;;5081783;28;19990;-86
2022/03/18 19:19:02;;;;;;;;;;;;;;;;;;5087116;28;19958;-85
2022/03/18 19:21:30;;;;;;;;;;;;;;;;;;5106298;28;19927;-89
2022/03/18 19:23:57;;;;;;;;;;;;;;;;;;5099300;28;19924;-89
2022/03/18 19:26:24;;;;;;;;;;;;;;;;;;5091223;28;20023;-85
2022/03/18 19:28:51;;;;;;;;;;;;;;;;;;5104139;27;19929;-87
2022/03/18 19:34:04;;;;;;;;;;;;;;;;;;5058039;28;19928;-88
2022/03/18 19:36:33;;;;;;;;;;;;;;;;;;5067424;28;19928;-87
2022/03/18 19:38:59;;;;;;;;;;;;;;;;;;5066148;28;19964;-84
2022/03/18 19:41:28;;;;;;;;;;;;;;;;;;5065317;28;19928;-88
2022/03/18 19:43:54;;;;;;;;;;;;;;;;;;5066009;28;20720;-87
2022/03/18 19:46:23;;;;;;;;;;;;;;;;;;5064574;28;19990;-86
2022/03/18 19:48:50;;;;;;;;;;;;;;;;;;5065334;28;20024;-86
2022/03/18 19:51:16;;;;;;;;;;;;;;;;;;5059358;28;20025;-88
2022/03/18 19:53:46;;;;;;;;;;;;;;;;;;5034599;28;19935;-89
2022/03/18 20:01:43;;;;;;;;;;;;;;;;;;5064795;28;19928;-81
2022/03/18 20:04:10;;;;;;;;;;;;;;;;;;5063542;28;19967;-80
2022/03/18 20:06:37;;;;;;;;;;;;;;;;;;5060995;28;19933;-82
2022/03/18 20:09:03;;;;;;;;;;;;;;;;;;5061801;28;19982;-81
2022/03/18 20:11:30;;;;;;;;;;;;;;;;;;5070113;28;19924;-82
2022/03/18 20:13:56;;;;;;;;;;;;;;;;;;5084139;28;19928;-81
2022/03/18 20:16:25;;;;;;;;;;;;;;;;;;5080924;28;19943;-83
2022/03/18 20:18:52;;;;;;;;;;;;;;;;;;5076274;28;20315;-82
2022/03/18 20:21:18;;;;;;;;;;;;;;;;;;5078404;28;20530;-83
2022/03/18 20:23:45;;;;;;;;;;;;;;;;;;5079576;28;19972;-81
2022/03/18 20:26:12;;;;;;;;;;;;;;;;;;5077423;28;20479;-83
2022/03/18 20:28:39;;;;;;;;;;;;;;;;;;5079539;28;19928;-82
2022/03/18 20:31:05;;;;;;;;;;;;;;;;;;5080365;28;19932;-82
2022/03/18 20:33:32;;;;;;;;;;;;;;;;;;5079618;28;20459;-82
2022/03/18 20:36:06;;;;;;;;;;;;;;;;;;5085958;28;19982;-83
2022/03/18 20:38:33;;;;;;;;;;;;;;;;;;5076184;28;19931;-82
2022/03/18 20:40:59;;;;;;;;;;;;;;;;;;5077258;28;19928;-82
2022/03/18 20:43:29;;;;;;;;;;;;;;;;;;5077496;28;19966;-82
2022/03/18 20:45:56;;;;;;;;;;;;;;;;;;5090336;28;20477;-91
2022/03/18 20:48:24;;;;;;;;;;;;;;;;;;5096330;28;20372;-90
2022/03/18 20:50:55;;;;;;;;;;;;;;;;;;5076663;27;19928;-91
2022/03/18 20:53:22;;;;;;;;;;;;;;;;;;5102153;27;19931;-88
2022/03/18 20:55:48;;;;;;;;;;;;;;;;;;5086550;28;19928;-86
2022/03/18 20:58:15;;;;;;;;;;;;;;;;;;5077944;28;19924;-88
2022/03/18 21:00:41;;;;;;;;;;;;;;;;;;5072983;28;19928;-87
2022/03/18 21:03:08;;;;;;;;;;;;;;;;;;5083970;28;19929;-89
2022/03/18 21:05:36;;;;;;;;;;;;;;;;;;5085731;27;20347;-87
2022/03/18 21:08:02;;;;;;;;;;;;;;;;;;5090553;28;19924;-86
2022/03/18 21:10:29;;;;;;;;;;;;;;;;;;5103041;27;19939;-87
2022/03/18 21:12:56;;;;;;;;;;;;;;;;;;5091273;27;19936;-87
2022/03/18 21:15:22;;;;;;;;;;;;;;;;;;5121263;27;19928;-88
2022/03/18 21:17:49;;;;;;;;;;;;;;;;;;5100444;27;19953;-83
2022/03/18 21:20:17;;;;;;;;;;;;;;;;;;5101607;27;19977;-84
2022/03/18 21:22:47;;;;;;;;;;;;;;;;;;5098867;27;20703;-86
2022/03/18 21:25:15;;;;;;;;;;;;;;;;;;5101577;27;19927;-85
2022/03/18 21:30:40;;;;;;;;;;;;;;;;;;5102945;27;20322;-87
2022/03/18 21:33:07;;;;;;;;;;;;;;;;;;5106749;27;19927;-89
2022/03/18 21:35:34;;;;;;;;;;;;;;;;;;5122961;27;20249;-89
2022/03/18 21:38:01;;;;;;;;;;;;;;;;;;5107000;27;19984;-88
2022/03/18 21:40:29;;;;;;;;;;;;;;;;;;5103988;27;19924;-88
2022/03/18 21:42:56;;;;;;;;;;;;;;;;;;5107860;28;19924;-88
2022/03/18 21:45:23;;;;;;;;;;;;;;;;;;5116152;27;19924;-89
2022/03/18 21:47:50;;;;;;;;;;;;;;;;;;5095362;27;19968;-87
2022/03/18 21:50:16;;;;;;;;;;;;;;;;;;5086938;27;19976;-89
2022/03/18 21:52:44;;;;;;;;;;;;;;;;;;5113241;27;19950;-91
2022/03/18 21:55:10;;;;;;;;;;;;;;;;;;5086432;28;20010;-88
2022/03/18 21:57:37;;;;;;;;;;;;;;;;;;5106122;27;19928;-87
2022/03/18 22:00:06;;;;;;;;;;;;;;;;;;5104177;28;19935;-89
2022/03/18 22:02:32;;;;;;;;;;;;;;;;;;5096400;28;20116;-89
2022/03/18 22:04:59;;;;;;;;;;;;;;;;;;5098631;28;19927;-88
2022/03/18 22:07:26;;;;;;;;;;;;;;;;;;5108874;27;20014;-89
2022/03/18 22:09:53;;;;;;;;;;;;;;;;;;5103517;28;19935;-88
2022/03/18 22:12:20;;;;;;;;;;;;;;;;;;5091644;28;19924;-86
2022/03/18 22:14:47;;;;;;;;;;;;;;;;;;5093330;28;19924;-89
2022/03/18 22:17:13;;;;;;;;;;;;;;;;;;5071563;28;19924;-88
2022/03/18 22:19:42;;;;;;;;;;;;;;;;;;5094395;28;20023;-88
2022/03/18 22:22:09;;;;;;;;;;;;;;;;;;5075981;28;20399;-88
2022/03/18 22:24:36;;;;;;;;;;;;;;;;;;5101190;28;20372;-86
2022/03/18 22:27:03;;;;;;;;;;;;;;;;;;5076797;28;19928;-87
2022/03/18 22:29:29;;;;;;;;;;;;;;;;;;5083096;28;19924;-88
2022/03/18 22:31:56;;;;;;;;;;;;;;;;;;5098528;28;19924;-88
2022/03/18 22:34:23;;;;;;;;;;;;;;;;;;5072340;28;20487;-86
2022/03/18 22:36:49;;;;;;;;;;;;;;;;;;5094302;28;19924;-86
2022/03/18 22:39:16;;;;;;;;;;;;;;;;;;5096195;28;19931;-87
2022/03/18 22:41:43;;;;;;;;;;;;;;;;;;5094688;28;19928;-88
2022/03/18 22:44:09;;;;;;;;;;;;;;;;;;5092840;28;20376;-89
2022/03/18 22:46:36;;;;;;;;;;;;;;;;;;5109173;28;19931;-92
2022/03/18 22:49:03;;;;;;;;;;;;;;;;;;5117285;28;20283;-94
2022/03/18 22:51:29;;;;;;;;;;;;;;;;;;5126096;28;19924;-93
2022/03/18 22:53:56;;;;;;;;;;;;;;;;;;5114035;28;19931;-92
2022/03/18 22:56:23;;;;;;;;;;;;;;;;;;5111932;28;19935;-94
2022/03/18 22:58:49;;;;;;;;;;;;;;;;;;5098346;28;20402;-94
2022/03/18 23:01:16;;;;;;;;;;;;;;;;;;5114724;28;19923;-93
2022/03/18 23:03:43;;;;;;;;;;;;;;;;;;5108722;28;19927;-95
2022/03/18 23:06:10;;;;;;;;;;;;;;;;;;5096890;28;19924;-93
2022/03/18 23:08:38;;;;;;;;;;;;;;;;;;5094924;28;20382;-94
2022/03/18 23:13:50;;;;;;;;;;;;;;;;;;5113845;28;19999;-94
2022/03/18 23:16:25;;;;;;;;;;;;;;;;;;5113185;28;19924;-94
2022/03/18 23:18:52;;;;;;;;;;;;;;;;;;5113082;28;19931;-94
2022/03/18 23:21:19;;;;;;;;;;;;;;;;;;5109699;28;20300;-94
2022/03/18 23:23:46;;;;;;;;;;;;;;;;;;5106041;28;19924;-94
2022/03/18 23:26:13;;;;;;;;;;;;;;;;;;5119777;27;19941;-93
2022/03/18 23:28:39;;;;;;;;;;;;;;;;;;5123353;27;19956;-94
2022/03/18 23:31:06;;;;;;;;;;;;;;;;;;5105266;28;19931;-94
2022/03/18 23:33:35;;;;;;;;;;;;;;;;;;5100054;28;19972;-93
2022/03/18 23:36:04;;;;;;;;;;;;;;;;;;5109679;27;19924;-94
2022/03/18 23:38:34;;;;;;;;;;;;;;;;;;5103432;27;20016;-94
2022/03/18 23:41:00;;;;;;;;;;;;;;;;;;5122374;27;19923;-93
2022/03/18 23:43:27;;;;;;;;;;;;;;;;;;5098001;28;19931;-95
2022/03/18 23:45:54;;;;;;;;;;;;;;;;;;5102881;28;19924;-94
2022/03/18 23:48:21;;;;;;;;;;;;;;;;;;5111960;27;19977;-93
2022/03/18 23:50:48;;;;;;;;;;;;;;;;;;5119434;27;19954;-94
2022/03/18 23:53:15;;;;;;;;;;;;;;;;;;5115489;27;19924;-95
2022/03/18 23:55:41;;;;;;;;;;;;;;;;;;5088342;28;19924;-94
2022/03/18 23:58:08;;;;;;;;;;;;;;;;;;5105767;28;20333;-92
